Time;durP1;ratioP1;P1;durP2;ratioP2;P2;SDS_P1;SDS_P2;PMS_P1;PMS_P2;Temp;Humidity;BMP_temperature;BMP_pressure;BME280_temperature;BME280_humidity;BME280_pressure;Samples;Min_cycle;Max_cycle;Signal;HPM_P1;HPM_P2
2022/11/04 00:01:24;;;;;;;1.20;0.70;;;;;;;18.72;47.03;99996.38;4976545;28;20472;-64
2022/11/04 00:03:51;;;;;;;1.27;0.85;;;;;;;18.70;47.02;99998.44;4975756;28;20030;-64
2022/11/04 00:06:16;;;;;;;1.60;0.70;;;;;;;18.70;46.88;100005.75;4976339;28;20416;-65
2022/11/04 00:08:41;;;;;;;0.90;0.57;;;;;;;18.64;46.84;100004.69;4976353;28;20047;-65
2022/11/04 00:13:52;;;;;;;2.70;0.80;;;;;;;18.60;46.40;100016.97;4975293;28;20081;-64
2022/11/04 00:19:02;;;;;;;3.35;0.65;;;;;;;18.56;46.87;100029.25;4976179;28;20563;-64
2022/11/04 00:29:41;;;;;;;1.90;0.50;;;;;;;18.55;47.51;100030.28;4975815;28;20057;-64
2022/11/04 00:34:50;;;;;;;1.63;0.73;;;;;;;18.55;47.02;100039.28;4976934;28;20110;-64
2022/11/04 00:37:16;;;;;;;3.00;0.95;;;;;;;18.58;47.49;100047.00;4976615;28;20027;-64
2022/11/04 00:39:42;;;;;;;1.02;0.52;;;;;;;18.58;47.24;100048.88;4959650;28;20455;-64
2022/11/04 00:42:07;;;;;;;1.63;0.90;;;;;;;18.60;46.96;100052.22;4975608;28;20504;-64
2022/11/04 00:44:32;;;;;;;1.88;0.70;;;;;;;18.58;46.91;100057.88;4976622;28;20145;-64
2022/11/04 00:46:58;;;;;;;4.90;0.70;;;;;;;18.58;46.81;100051.59;4975391;28;20042;-64
2022/11/04 00:49:23;;;;;;;2.38;0.95;;;;;;;18.57;47.12;100058.03;4959153;28;20062;-64
2022/11/04 00:51:49;;;;;;;2.05;0.93;;;;;;;18.51;46.46;100058.84;4943682;28;20037;-64
2022/11/04 00:54:14;;;;;;;3.95;0.90;;;;;;;18.49;47.18;100063.63;4975114;28;20034;-64
2022/11/04 00:56:40;;;;;;;1.83;1.30;;;;;;;18.47;47.30;100060.25;4976483;28;20043;-64
2022/11/04 00:59:06;;;;;;;2.65;0.88;;;;;;;18.46;47.04;100058.56;4975041;28;20481;-64
2022/11/04 01:01:31;;;;;;;2.10;0.90;;;;;;;18.43;46.82;100064.38;4958998;28;20038;-64
2022/11/04 01:03:57;;;;;;;1.33;1.08;;;;;;;18.38;46.98;100062.28;4975628;28;20030;-64
2022/11/04 01:06:24;;;;;;;3.75;0.80;;;;;;;18.38;46.50;100064.16;4976178;28;20030;-64
2022/11/04 01:08:55;;;;;;;5.43;1.10;;;;;;;18.36;46.62;100069.78;4974971;28;20034;-64
2022/11/04 01:11:20;;;;;;;5.13;0.85;;;;;;;18.31;47.34;100068.72;4976185;28;20034;-64
2022/11/04 01:13:49;;;;;;;4.47;0.93;;;;;;;18.28;46.71;100071.81;4942774;28;20484;-64
2022/11/04 01:16:14;;;;;;;1.42;1.02;;;;;;;18.25;46.92;100066.78;4975006;28;20027;-64
2022/11/04 01:18:40;;;;;;;2.20;0.85;;;;;;;18.25;46.89;100073.03;4959385;28;20029;-64
2022/11/04 01:21:07;;;;;;;1.90;0.98;;;;;;;18.25;46.98;100077.63;4974923;28;20034;-64
2022/11/04 01:23:33;;;;;;;2.53;1.08;;;;;;;18.22;46.91;100070.72;4958616;28;20469;-64
2022/11/04 01:25:59;;;;;;;3.22;0.88;;;;;;;18.18;46.24;100074.84;4958314;28;20501;-64
2022/11/04 01:28:24;;;;;;;6.40;0.95;;;;;;;18.16;46.71;100070.66;4975822;28;20035;-63
2022/11/04 01:30:50;;;;;;;2.92;0.60;;;;;;;18.17;46.64;100084.03;4975070;28;20042;-64
2022/11/04 01:33:15;;;;;;;3.45;0.75;;;;;;;18.13;46.46;100084.59;4958502;28;20038;-64
2022/11/04 01:35:40;;;;;;;5.28;0.65;;;;;;;18.10;46.58;100085.00;4974496;28;20031;-64
2022/11/04 01:38:06;;;;;;;2.03;0.70;;;;;;;18.06;46.70;100083.72;4974343;28;20117;-64
2022/11/04 01:40:36;;;;;;;1.85;1.00;;;;;;;17.97;46.38;100089.28;4974241;28;20042;-64
2022/11/04 01:43:01;;;;;;;2.10;0.80;;;;;;;17.90;46.83;100080.25;4974489;28;20030;-64
2022/11/04 01:45:26;;;;;;;2.05;0.73;;;;;;;17.90;46.67;100091.09;4974881;28;20493;-64
2022/11/04 01:48:02;;;;;;;3.05;0.70;;;;;;;17.85;46.47;100088.13;4974262;28;20560;-64
2022/11/04 01:50:29;;;;;;;4.03;1.02;;;;;;;17.82;47.27;100083.09;4975070;28;20043;-64
2022/11/04 01:53:03;;;;;;;2.22;0.68;;;;;;;17.81;47.21;100097.66;4974354;28;20046;-64
2022/11/04 01:55:31;;;;;;;4.18;0.57;;;;;;;17.80;46.77;100103.28;4974307;28;20031;-64
2022/11/04 01:58:00;;;;;;;2.28;0.88;;;;;;;17.73;46.30;100091.53;4958454;28;20022;-64
2022/11/04 02:00:25;;;;;;;0.50;0.50;;;;;;;17.70;46.48;100100.88;4974187;28;20400;-64
2022/11/04 02:02:59;;;;;;;1.60;0.70;;;;;;;17.68;46.65;100105.66;4975161;28;20118;-64
2022/11/04 02:05:25;;;;;;;4.15;1.05;;;;;;;17.63;47.10;100105.41;4974199;28;20042;-64
2022/11/04 02:07:53;;;;;;;2.22;0.60;;;;;;;17.58;46.61;100101.59;4957866;28;20042;-64
2022/11/04 02:10:20;;;;;;;5.45;1.02;;;;;;;17.55;47.30;100102.81;4957988;28;20046;-64
2022/11/04 02:12:48;;;;;;;2.50;1.55;;;;;;;17.53;46.72;100104.88;4974425;28;20510;-64
2022/11/04 02:15:14;;;;;;;6.60;0.95;;;;;;;17.50;47.40;100102.53;4973882;28;20500;-63
2022/11/04 02:17:56;;;;;;;1.73;0.70;;;;;;;17.48;46.83;100096.44;4973895;28;20113;-63
2022/11/04 02:20:44;;;;;;;2.85;0.85;;;;;;;17.47;47.87;100097.50;4957770;28;20058;-64
2022/11/04 02:23:18;;;;;;;3.38;0.80;;;;;;;17.44;47.37;100096.00;4973738;28;20114;-64
2022/11/04 02:26:02;;;;;;;2.25;0.80;;;;;;;17.40;47.10;100094.72;4974869;28;20031;-64
2022/11/04 02:28:52;;;;;;;2.03;0.63;;;;;;;17.36;46.51;100098.81;4974790;28;20035;-64
2022/11/04 02:31:28;;;;;;;4.50;0.70;;;;;;;17.34;47.45;100094.63;4975102;28;20031;-64
2022/11/04 02:34:03;;;;;;;6.32;0.82;;;;;;;17.34;47.16;100094.63;4973897;28;20039;-64
2022/11/04 02:36:31;;;;;;;0.60;0.60;;;;;;;17.33;46.08;100092.97;4973542;28;20098;-64
2022/11/04 02:39:03;;;;;;;2.55;0.73;;;;;;;17.32;46.96;100091.28;4974453;28;20121;-64
2022/11/04 02:41:47;;;;;;;4.60;0.50;;;;;;;17.32;46.80;100085.84;4973367;28;20034;-64
2022/11/04 02:44:20;;;;;;;5.63;0.85;;;;;;;17.28;47.36;100084.59;4974577;28;20038;-64
2022/11/04 02:46:51;;;;;;;3.70;0.75;;;;;;;17.30;46.78;100087.94;4957241;28;20089;-64
2022/11/04 02:49:24;;;;;;;4.05;0.77;;;;;;;17.28;46.58;100084.59;4974426;28;20553;-63
2022/11/04 02:51:58;;;;;;;3.70;0.93;;;;;;;17.31;47.06;100089.59;4974867;28;20023;-63
2022/11/04 02:54:37;;;;;;;4.65;0.80;;;;;;;17.32;47.21;100077.72;4957191;28;20171;-63
2022/11/04 02:57:06;;;;;;;3.80;0.93;;;;;;;17.32;46.25;100084.00;4973187;28;20039;-64
2022/11/04 02:59:37;;;;;;;1.40;0.73;;;;;;;17.31;48.01;100076.91;4956804;28;20035;-64
2022/11/04 03:02:05;;;;;;;3.88;0.98;;;;;;;17.31;46.71;100082.31;4972174;28;20122;-64
2022/11/04 03:04:36;;;;;;;3.65;0.95;;;;;;;17.28;47.39;100071.03;4973106;28;20085;-64
2022/11/04 03:07:02;;;;;;;3.28;0.80;;;;;;;17.27;46.56;100080.19;4972995;28;20085;-64
2022/11/04 03:09:30;;;;;;;7.18;0.90;;;;;;;17.27;47.39;100072.06;4957263;28;20461;-64
2022/11/04 03:12:00;;;;;;;3.85;0.90;;;;;;;17.27;47.32;100082.88;4973068;28;20034;-64
2022/11/04 03:14:53;;;;;;;4.55;0.60;;;;;;;17.28;47.20;100076.47;4974152;28;20033;-64
2022/11/04 03:17:45;;;;;;;3.45;0.73;;;;;;;17.27;47.76;100077.47;4954086;28;20104;-63
2022/11/04 03:20:17;;;;;;;7.20;1.15;;;;;;;17.24;46.54;100075.16;4972960;28;20046;-63
2022/11/04 03:22:42;;;;;;;1.60;0.70;;;;;;;17.27;47.46;100082.88;4972914;28;20047;-64
2022/11/04 03:25:08;;;;;;;3.75;1.83;;;;;;;17.25;47.24;100082.25;4956687;28;20044;-64
2022/11/04 03:27:48;;;;;;;1.23;0.73;;;;;;;17.22;48.01;100080.78;4973596;28;20026;-64
2022/11/04 03:30:16;;;;;;;2.58;0.60;;;;;;;17.19;47.60;100064.06;4973048;28;20045;-64
2022/11/04 03:33:06;;;;;;;7.03;1.23;;;;;;;17.22;46.97;100077.22;4956646;28;20030;-64
2022/11/04 03:35:32;;;;;;;3.45;1.05;;;;;;;17.18;47.09;100073.19;4972633;28;20058;-64
2022/11/04 03:37:57;;;;;;;2.83;0.70;;;;;;;17.20;46.09;100077.38;4940561;28;20058;-64
2022/11/04 03:40:23;;;;;;;8.93;0.90;;;;;;;17.18;46.51;100074.03;4956438;28;20431;-64
2022/11/04 03:43:02;;;;;;;7.82;0.95;;;;;;;17.19;46.31;100080.31;4956978;28;20023;-64
2022/11/04 03:45:28;;;;;;;2.63;0.52;;;;;;;17.13;47.30;100075.63;4956701;28;20126;-64
2022/11/04 03:47:55;;;;;;;3.40;0.90;;;;;;;17.17;46.60;100071.53;4973762;28;20127;-64
2022/11/04 03:50:32;;;;;;;5.57;0.95;;;;;;;17.14;46.99;100066.50;4972692;28;20043;-64
2022/11/04 03:52:58;;;;;;;2.30;0.85;;;;;;;17.19;47.13;100077.59;4972636;28;20038;-64
2022/11/04 03:55:30;;;;;;;3.97;0.50;;;;;;;17.15;47.59;100071.72;4972749;28;20031;-64
2022/11/04 03:58:43;;;;;;;9.95;0.93;;;;;;;17.15;47.87;100076.28;4973057;28;20484;-64
2022/11/04 04:01:25;;;;;;;2.65;0.82;;;;;;;17.18;46.85;100078.59;4965608;28;20042;-64
2022/11/04 04:03:57;;;;;;;5.72;1.58;;;;;;;17.16;46.89;100072.56;4974128;28;20037;-64
2022/11/04 04:06:35;;;;;;;6.25;0.75;;;;;;;17.17;46.46;100076.94;4972687;28;20039;-64
2022/11/04 04:09:20;;;;;;;3.03;0.70;;;;;;;17.18;47.79;100067.78;4956207;28;20031;-64
2022/11/04 04:12:02;;;;;;;2.10;0.80;;;;;;;17.17;46.84;100069.66;4972562;28;20035;-64
2022/11/04 04:14:39;;;;;;;3.13;0.75;;;;;;;17.17;47.17;100071.53;4959173;28;20444;-64
2022/11/04 04:17:20;;;;;;;2.97;0.93;;;;;;;17.18;47.59;100075.91;4976048;28;20459;-64
2022/11/04 04:20:13;;;;;;;0.98;0.50;;;;;;;17.15;47.68;100079.84;4975933;28;20504;-64
2022/11/04 04:22:42;;;;;;;2.42;0.85;;;;;;;17.12;47.00;100073.94;4955996;28;20034;-64
2022/11/04 04:27:55;;;;;;;4.15;1.00;;;;;;;17.10;47.07;100076.03;4977285;28;20092;-64
2022/11/04 04:30:21;;;;;;;2.65;0.60;;;;;;;17.10;46.75;100070.59;4975775;28;20038;-64
2022/11/04 04:32:50;;;;;;;6.15;1.00;;;;;;;17.12;46.76;100076.66;4943838;28;20039;-64
2022/11/04 04:46:22;;;;;;;1.42;0.82;;;;;;;17.09;47.07;100095.97;4975738;28;20050;-64
2022/11/04 04:48:47;;;;;;;4.32;0.90;;;;;;;17.11;46.97;100093.94;4975892;28;20547;-64
2022/11/04 04:51:13;;;;;;;3.92;0.75;;;;;;;17.13;47.74;100102.69;4975395;28;20122;-64
2022/11/04 04:53:38;;;;;;;5.22;0.70;;;;;;;17.11;47.11;100096.66;4975355;28;20041;-63
2022/11/04 04:56:04;;;;;;;6.75;1.13;;;;;;;17.14;46.80;100107.09;4959286;28;20031;-63
2022/11/04 04:58:29;;;;;;;3.97;0.57;;;;;;;17.13;46.43;100116.25;4975343;28;20064;-63
2022/11/04 05:00:54;;;;;;;3.20;0.70;;;;;;;17.10;46.88;100111.19;4975562;28;20090;-63
2022/11/04 05:03:20;;;;;;;6.75;1.55;;;;;;;17.08;46.83;100099.72;4975186;28;20035;-63
2022/11/04 05:05:45;;;;;;;2.00;0.80;;;;;;;17.08;46.72;100105.16;4976346;28;20118;-63
2022/11/04 05:08:10;;;;;;;10.13;1.10;;;;;;;17.10;47.33;100111.19;4976440;28;20034;-64
2022/11/04 05:10:36;;;;;;;6.22;1.00;;;;;;;17.06;47.72;100102.59;4976377;28;20027;-64
2022/11/04 05:15:45;;;;;;;2.13;1.00;;;;;;;17.03;46.46;100107.59;4976574;28;20022;-64
2022/11/04 05:18:10;;;;;;;6.88;1.50;;;;;;;17.04;47.90;100111.94;4974916;28;20030;-64
2022/11/04 05:20:38;;;;;;;11.05;1.00;;;;;;;17.02;46.76;100114.84;4974860;28;20031;-64
2022/11/04 05:23:03;;;;;;;4.93;0.90;;;;;;;17.02;46.15;100114.84;4974659;28;20122;-63
2022/11/04 05:25:28;;;;;;;3.78;0.93;;;;;;;17.06;46.36;100112.59;4973834;28;20130;-63
2022/11/04 05:27:54;;;;;;;2.67;1.25;;;;;;;17.09;46.71;100112.22;4975150;28;20023;-63
2022/11/04 05:30:19;;;;;;;3.25;0.82;;;;;;;17.08;47.17;100110.56;4974624;28;20030;-63
2022/11/04 05:32:44;;;;;;;10.68;1.02;;;;;;;17.11;46.58;100108.31;4975879;28;20034;-63
2022/11/04 05:35:10;;;;;;;4.72;1.38;;;;;;;17.16;47.23;100113.16;4975817;28;20117;-63
2022/11/04 05:37:35;;;;;;;8.70;1.05;;;;;;;17.18;47.84;100111.09;4975702;28;20033;-63
2022/11/04 05:40:00;;;;;;;8.20;1.30;;;;;;;17.20;48.00;100114.44;4974785;28;20065;-63
2022/11/04 05:42:26;;;;;;;7.88;1.77;;;;;;;17.23;46.61;100114.06;4975597;28;20517;-63
2022/11/04 05:44:51;;;;;;;5.72;0.80;;;;;;;17.27;47.14;100118.94;4974393;28;20035;-63
2022/11/04 05:47:17;;;;;;;1.92;1.13;;;;;;;17.29;46.75;100124.97;4958274;28;20496;-63
2022/11/04 05:49:42;;;;;;;3.67;0.75;;;;;;;17.31;46.97;100119.38;4958207;28;20027;-63
2022/11/04 05:52:07;;;;;;;4.18;1.27;;;;;;;17.35;47.27;100123.38;4974405;28;20507;-63
2022/11/04 05:54:33;;;;;;;3.55;0.95;;;;;;;17.39;47.43;100124.69;4942682;28;20067;-63
2022/11/04 05:56:58;;;;;;;12.63;0.90;;;;;;;17.39;46.53;100128.22;4958055;28;20563;-63
2022/11/04 05:59:23;;;;;;;1.20;0.80;;;;;;;17.43;46.77;100128.69;4975495;28;20110;-63
2022/11/04 06:01:49;;;;;;;2.15;0.63;;;;;;;17.43;46.73;100132.22;4974176;28;20097;-63
2022/11/04 06:04:16;;;;;;;7.93;1.00;;;;;;;17.48;47.32;100139.78;4941971;28;20404;-63
2022/11/04 06:06:42;;;;;;;5.03;0.70;;;;;;;17.50;47.04;100143.16;4974506;28;20050;-63
2022/11/04 06:09:07;;;;;;;12.55;1.25;;;;;;;17.50;47.02;100132.31;4973956;28;20089;-63
2022/11/04 06:11:33;;;;;;;4.05;0.57;;;;;;;17.54;46.01;100136.34;4974003;28;20034;-63
2022/11/04 06:14:00;;;;;;;6.47;0.90;;;;;;;17.56;46.69;100136.97;4973871;28;20492;-63
2022/11/04 06:16:25;;;;;;;7.82;1.00;;;;;;;17.56;47.06;100144.28;4973755;28;20035;-63
2022/11/04 06:18:51;;;;;;;2.67;0.70;;;;;;;17.59;46.66;100136.59;4958138;28;20038;-63
2022/11/04 06:21:18;;;;;;;5.50;0.70;;;;;;;17.65;47.56;100141.25;4957797;28;20027;-63
2022/11/04 06:23:44;;;;;;;9.30;1.42;;;;;;;17.70;46.45;100154.25;4973678;28;20564;-63
2022/11/04 06:26:10;;;;;;;8.52;1.50;;;;;;;17.73;47.33;100143.00;4973639;28;20146;-63
2022/11/04 06:28:36;;;;;;;5.90;0.82;;;;;;;17.75;47.46;100147.22;4957536;28;20114;-63
2022/11/04 06:31:04;;;;;;;5.25;0.90;;;;;;;17.75;47.18;100144.50;4973679;28;20117;-63
2022/11/04 06:33:30;;;;;;;3.25;0.73;;;;;;;17.81;46.14;100146.44;4973909;28;20015;-62
2022/11/04 06:35:56;;;;;;;4.35;1.17;;;;;;;17.82;47.13;100145.41;4957502;28;20390;-63
2022/11/04 06:38:22;;;;;;;3.92;0.75;;;;;;;17.86;46.78;100149.44;4957107;28;20038;-62
2022/11/04 06:40:47;;;;;;;1.98;1.02;;;;;;;17.88;46.78;100157.34;4975026;28;20031;-62
2022/11/04 06:43:13;;;;;;;5.28;1.15;;;;;;;17.89;47.03;100154.47;4957344;28;20035;-63
2022/11/04 06:45:38;;;;;;;1.00;0.90;;;;;;;17.91;46.82;100162.38;4973855;28;20030;-64
2022/11/04 06:48:04;;;;;;;1.75;0.82;;;;;;;17.91;46.59;100162.38;4957365;28;20034;-63
2022/11/04 06:50:29;;;;;;;3.03;0.88;;;;;;;17.90;47.38;100161.53;4941297;28;20061;-64
2022/11/04 06:52:54;;;;;;;5.85;0.80;;;;;;;17.92;46.94;100175.72;4973266;28;20134;-63
2022/11/04 06:55:20;;;;;;;4.43;0.80;;;;;;;17.93;46.62;100182.00;4973299;28;20568;-63
2022/11/04 06:57:45;;;;;;;3.20;0.90;;;;;;;17.93;47.01;100177.41;4974897;28;20358;-63
2022/11/04 07:00:11;;;;;;;5.85;0.70;;;;;;;17.94;46.97;100176.41;4957144;28;20066;-64
2022/11/04 07:02:37;;;;;;;3.90;0.70;;;;;;;17.96;46.78;100182.44;4973066;28;20097;-64
2022/11/04 07:05:03;;;;;;;2.05;0.70;;;;;;;17.97;47.19;100184.16;4974433;28;20113;-63
2022/11/04 07:07:29;;;;;;;2.03;0.80;;;;;;;18.01;47.03;100179.16;4973108;28;20027;-63
2022/11/04 07:09:54;;;;;;;2.05;0.60;;;;;;;18.03;46.72;100183.34;4973365;28;20505;-64
2022/11/04 07:12:21;;;;;;;1.52;0.95;;;;;;;18.09;47.16;100179.03;4972929;28;20114;-63
2022/11/04 07:14:47;;;;;;;2.42;0.93;;;;;;;18.15;46.30;100186.38;4973064;28;20030;-63
2022/11/04 07:17:12;;;;;;;5.30;1.40;;;;;;;18.17;46.94;100183.50;4972788;28;20034;-64
2022/11/04 07:19:38;;;;;;;4.60;0.55;;;;;;;18.22;46.66;100195.44;4972902;28;20053;-63
2022/11/04 07:22:03;;;;;;;6.25;1.13;;;;;;;18.26;46.59;100198.56;4956644;28;20079;-63
2022/11/04 07:24:28;;;;;;;6.55;1.08;;;;;;;18.24;46.39;100192.53;4973252;28;20031;-63
2022/11/04 07:26:55;;;;;;;5.80;1.05;;;;;;;18.28;46.07;100201.97;4972790;28;20041;-63
2022/11/04 07:29:20;;;;;;;3.80;1.00;;;;;;;18.28;46.11;100201.97;4972716;28;20390;-63
2022/11/04 07:31:45;;;;;;;4.25;1.08;;;;;;;18.35;46.54;100205.56;4972818;28;20105;-63
2022/11/04 07:34:11;;;;;;;9.77;1.15;;;;;;;18.42;46.54;100214.59;4940848;28;20400;-63
2022/11/04 07:36:36;;;;;;;2.75;0.88;;;;;;;18.50;46.28;100222.63;4974379;28;20150;-63
2022/11/04 07:39:02;;;;;;;2.70;0.82;;;;;;;18.62;46.08;100223.75;4956315;28;20039;-63
2022/11/04 07:41:28;;;;;;;9.35;1.33;;;;;;;18.66;45.66;100219.63;4972624;28;20499;-63
2022/11/04 07:43:53;;;;;;;6.35;1.27;;;;;;;18.73;45.86;100227.84;4972595;28;20027;-63
2022/11/04 07:46:20;;;;;;;1.73;0.80;;;;;;;18.79;45.98;100227.88;4956542;28;20089;-64
2022/11/04 07:48:46;;;;;;;4.30;1.42;;;;;;;18.83;46.01;100228.34;4974895;28;20050;-64
2022/11/04 07:51:15;;;;;;;5.43;1.00;;;;;;;18.89;46.42;100230.25;4976472;28;20110;-63
2022/11/04 07:53:41;;;;;;;9.90;0.80;;;;;;;18.93;45.79;100235.09;4976266;28;20038;-63
2022/11/04 07:56:07;;;;;;;4.88;1.10;;;;;;;18.99;46.00;100249.75;4976328;28;20027;-63
2022/11/04 07:58:33;;;;;;;4.18;1.10;;;;;;;19.01;46.35;100247.69;4976427;28;20449;-63
2022/11/04 08:01:06;;;;;;;3.95;1.27;;;;;;;19.09;45.88;100247.53;4960661;28;20109;-63
2022/11/04 08:03:33;;;;;;;6.55;0.90;;;;;;;19.12;46.22;100253.38;4976365;28;20046;-63
2022/11/04 08:06:00;;;;;;;1.92;0.50;;;;;;;19.15;45.83;100257.59;4976160;28;20126;-63
2022/11/04 08:08:27;;;;;;;3.10;1.00;;;;;;;19.17;46.24;100252.81;4959950;28;20050;-64
2022/11/04 08:11:03;;;;;;;7.38;1.17;;;;;;;19.18;45.81;100255.31;4976095;28;20039;-63
2022/11/04 08:13:31;;;;;;;5.25;0.88;;;;;;;19.24;45.80;100255.53;4976157;28;20035;-63
2022/11/04 08:15:59;;;;;;;1.83;1.23;;;;;;;19.28;45.80;100254.97;4960342;28;20109;-63
2022/11/04 08:18:25;;;;;;;4.50;0.95;;;;;;;19.32;45.92;100255.41;4959890;28;20023;-63
2022/11/04 08:20:51;;;;;;;3.25;0.85;;;;;;;19.41;46.02;100256.94;4975777;28;20405;-63
2022/11/04 08:23:17;;;;;;;2.28;0.82;;;;;;;19.46;45.60;100259.88;4959798;28;20468;-63
2022/11/04 08:25:42;;;;;;;5.13;1.17;;;;;;;19.49;45.59;100262.22;4975973;28;20110;-64
2022/11/04 08:28:11;;;;;;;1.92;1.77;;;;;;;19.51;45.85;100271.03;4975884;28;20509;-63
2022/11/04 08:30:37;;;;;;;6.47;1.88;;;;;;;19.52;45.44;100269.97;4976286;28;20078;-63
2022/11/04 08:33:04;;;;;;;5.70;1.63;;;;;;;19.52;45.64;100272.69;4975790;28;20063;-63
2022/11/04 08:35:30;;;;;;;2.88;1.02;;;;;;;19.52;44.98;100284.41;4975779;28;20034;-64
2022/11/04 08:37:55;;;;;;;1.92;0.80;;;;;;;19.49;45.93;100279.34;4975531;28;20576;-64
2022/11/04 08:40:21;;;;;;;4.18;0.70;;;;;;;19.46;45.71;100297.94;4975515;28;20058;-63
2022/11/04 08:42:47;;;;;;;1.90;0.60;;;;;;;19.38;45.74;100298.06;4977226;28;20105;-64
2022/11/04 08:45:13;;;;;;;1.92;0.90;;;;;;;19.37;45.90;100293.69;4976839;28;20038;-64
2022/11/04 08:47:38;;;;;;;3.30;0.65;;;;;;;19.33;45.87;100301.38;4959278;28;20030;-64
2022/11/04 08:50:04;;;;;;;4.15;1.10;;;;;;;19.31;46.00;100297.19;4959417;28;20086;-64
2022/11/04 08:52:29;;;;;;;3.95;1.17;;;;;;;19.30;45.81;100295.50;4976779;28;20034;-64
2022/11/04 08:54:55;;;;;;;5.53;1.52;;;;;;;19.30;46.13;100303.66;4975873;28;20027;-64
2022/11/04 08:57:20;;;;;;;2.47;0.90;;;;;;;19.28;45.87;100309.28;4959242;28;20031;-63
2022/11/04 08:59:45;;;;;;;2.47;0.93;;;;;;;19.27;46.23;100309.47;4974028;28;20497;-64
2022/11/04 09:02:17;;;;;;;4.30;1.33;;;;;;;19.29;45.92;100310.13;4975318;28;20035;-64
2022/11/04 09:04:42;;;;;;;2.05;0.80;;;;;;;19.29;45.69;100315.56;4975321;28;20034;-64
2022/11/04 09:07:08;;;;;;;6.22;1.60;;;;;;;19.25;45.64;100314.25;4976385;28;20049;-64
2022/11/04 09:09:33;;;;;;;6.22;1.08;;;;;;;19.31;46.02;100324.34;4959491;28;20078;-64
2022/11/04 09:11:58;;;;;;;5.22;1.58;;;;;;;19.37;45.63;100323.56;4976297;28;20117;-63
2022/11/04 09:14:24;;;;;;;4.70;1.10;;;;;;;19.39;45.92;100333.22;4975108;28;20038;-63
2022/11/04 09:16:49;;;;;;;4.03;0.70;;;;;;;19.40;45.92;100328.63;4958933;28;20556;-63
2022/11/04 09:19:14;;;;;;;8.68;1.30;;;;;;;19.40;46.27;100334.06;4975027;28;20388;-64
2022/11/04 09:21:40;;;;;;;8.00;1.00;;;;;;;19.41;45.93;100330.28;4975326;28;20034;-64
2022/11/04 09:24:06;;;;;;;6.55;0.98;;;;;;;19.41;45.77;100327.56;4976222;28;20042;-63
2022/11/04 09:26:32;;;;;;;4.35;1.20;;;;;;;19.44;45.68;100333.47;4958879;28;20042;-64
2022/11/04 09:28:58;;;;;;;7.28;0.90;;;;;;;19.48;45.78;100336.63;4974759;28;20045;-63
2022/11/04 09:31:25;;;;;;;9.68;1.40;;;;;;;19.51;45.92;100337.06;4976404;28;20060;-64
2022/11/04 09:33:50;;;;;;;5.43;0.85;;;;;;;19.61;45.54;100332.09;4975187;28;20031;-64
2022/11/04 09:36:16;;;;;;;4.30;0.45;;;;;;;19.74;45.34;100315.88;4958426;28;20459;-64
2022/11/04 09:38:41;;;;;;;3.78;0.93;;;;;;;19.87;45.06;100314.28;4975782;28;20050;-63
2022/11/04 09:41:10;;;;;;;2.10;0.60;;;;;;;19.99;44.74;100313.47;4958608;28;20046;-64
2022/11/04 09:44:09;;;;;;;5.43;1.27;;;;;;;20.14;45.36;100314.19;4974515;28;20114;-64
2022/11/04 09:46:35;;;;;;;7.00;0.90;;;;;;;20.21;45.78;100316.94;4922404;28;20035;-64
2022/11/04 09:49:02;;;;;;;2.50;0.70;;;;;;;20.29;45.63;100309.47;4942724;28;20118;-64
2022/11/04 09:51:27;;;;;;;3.40;1.00;;;;;;;20.40;46.05;100324.34;4958290;28;20045;-64
2022/11/04 09:53:58;;;;;;;4.95;0.90;;;;;;;20.49;45.17;100320.38;4974411;28;20034;-64
2022/11/04 09:56:34;;;;;;;11.23;1.20;;;;;;;20.57;45.13;100330.25;4974223;28;20031;-64
2022/11/04 09:59:02;;;;;;;6.53;1.02;;;;;;;20.65;45.42;100343.66;4974372;28;20126;-64
2022/11/04 10:01:34;;;;;;;4.07;0.77;;;;;;;20.71;44.58;100351.00;4974156;28;20031;-63
2022/11/04 10:04:26;;;;;;;1.92;0.75;;;;;;;20.78;45.39;100360.00;4974637;28;20384;-64
2022/11/04 10:07:03;;;;;;;9.90;1.10;;;;;;;20.86;45.02;100355.22;4945079;28;20039;-64
2022/11/04 10:09:46;;;;;;;3.83;1.17;;;;;;;20.96;44.60;100349.38;4974077;28;20050;-64
2022/11/04 10:12:32;;;;;;;9.57;1.10;;;;;;;21.06;44.25;100349.78;4974900;28;20501;-64
2022/11/04 10:15:25;;;;;;;2.05;0.75;;;;;;;21.06;44.48;100347.06;4957882;28;20512;-64
2022/11/04 10:18:08;;;;;;;4.75;1.98;;;;;;;20.99;44.86;100353.56;4975097;28;20038;-64
2022/11/04 10:20:40;;;;;;;8.57;1.10;;;;;;;20.90;44.85;100353.75;4974805;28;20030;-64
2022/11/04 10:23:20;;;;;;;7.30;1.17;;;;;;;20.86;44.87;100354.38;4974981;28;20520;-64
2022/11/04 10:26:09;;;;;;;4.65;1.85;;;;;;;20.88;45.49;100357.75;4973754;28;20030;-64
2022/11/04 10:28:48;;;;;;;9.52;0.88;;;;;;;20.97;45.11;100359.19;4973677;28;20464;-64
2022/11/04 10:31:16;;;;;;;6.38;1.35;;;;;;;21.04;44.38;100360.06;4973680;28;20054;-64
2022/11/04 10:33:49;;;;;;;7.80;0.70;;;;;;;21.08;44.71;100352.34;4973773;28;20031;-64
2022/11/04 10:36:15;;;;;;;3.55;0.75;;;;;;;21.26;44.87;100345.22;4974811;28;20030;-64
2022/11/04 10:38:54;;;;;;;4.75;1.00;;;;;;;21.41;44.88;100359.44;4974246;28;20097;-64
2022/11/04 10:41:22;;;;;;;3.42;1.00;;;;;;;21.46;43.89;100362.41;4973506;28;20068;-64
2022/11/04 10:43:52;;;;;;;2.08;0.52;;;;;;;21.42;44.47;100361.13;4973318;28;20038;-64
2022/11/04 10:46:29;;;;;;;3.83;0.82;;;;;;;21.35;44.61;100376.66;4957245;28;20031;-64
2022/11/04 10:49:15;;;;;;;5.53;0.75;;;;;;;21.30;44.57;100379.16;4973861;28;20559;-64
2022/11/04 10:51:40;;;;;;;7.60;0.98;;;;;;;21.23;44.64;100378.31;4974733;28;20511;-64
2022/11/04 10:54:07;;;;;;;8.23;0.93;;;;;;;21.41;44.26;100391.31;4973275;28;20038;-64
2022/11/04 10:56:40;;;;;;;6.93;0.88;;;;;;;21.54;44.37;100390.47;4973201;28;20090;-64
2022/11/04 10:59:27;;;;;;;4.07;1.30;;;;;;;21.63;43.62;100384.59;4973184;28;20042;-64
2022/11/04 11:01:54;;;;;;;4.40;1.13;;;;;;;21.73;44.41;100384.16;4973141;28;20030;-64
2022/11/04 11:04:44;;;;;;;7.47;1.10;;;;;;;21.82;43.94;100389.19;4972928;28;20043;-64
2022/11/04 11:07:11;;;;;;;3.15;1.02;;;;;;;21.93;43.73;100393.16;4974203;28;20026;-64
2022/11/04 11:09:50;;;;;;;4.05;0.80;;;;;;;22.48;43.67;100394.44;4974672;28;20153;-64
2022/11/04 11:12:16;;;;;;;6.13;0.98;;;;;;;22.89;42.08;100394.06;4974238;28;20042;-65
2022/11/04 11:14:42;;;;;;;6.13;1.20;;;;;;;23.08;43.07;100395.81;4972967;28;20042;-65
2022/11/04 11:17:13;;;;;;;3.42;0.80;;;;;;;22.94;43.24;100408.72;4972898;28;20035;-65
2022/11/04 11:19:59;;;;;;;5.78;1.38;;;;;;;23.14;43.26;100405.88;4974082;28;20144;-65
2022/11/04 11:22:30;;;;;;;5.53;0.80;;;;;;;22.93;42.85;100400.72;4956116;28;20039;-65
2022/11/04 11:25:20;;;;;;;5.43;0.63;;;;;;;22.74;43.20;100398.97;4973251;28;20018;-66
2022/11/04 11:27:51;;;;;;;6.78;1.25;;;;;;;22.55;43.16;100401.56;4974074;28;20042;-64
2022/11/04 11:30:25;;;;;;;2.30;0.73;;;;;;;22.36;43.27;100404.38;4972968;28;20093;-65
2022/11/04 11:32:54;;;;;;;0.88;0.70;;;;;;;22.19;43.72;100417.66;4972836;28;20404;-64
2022/11/04 11:35:24;;;;;;;5.53;1.10;;;;;;;22.03;44.33;100423.56;4972758;28;20523;-64
2022/11/04 11:37:49;;;;;;;3.22;0.40;;;;;;;21.85;44.13;100426.09;4956656;28;20042;-65
2022/11/04 11:40:30;;;;;;;2.63;0.75;;;;;;;21.71;43.59;100432.59;4956498;28;20047;-64
2022/11/04 11:42:55;;;;;;;6.05;0.73;;;;;;;21.57;44.18;100422.75;4973379;28;20094;-65
2022/11/04 11:45:22;;;;;;;2.90;0.70;;;;;;;21.47;44.45;100428.63;4972677;28;20038;-64
2022/11/04 11:47:53;;;;;;;3.30;0.68;;;;;;;21.36;45.02;100427.38;4972558;28;20035;-65
2022/11/04 11:50:23;;;;;;;3.30;1.10;;;;;;;21.30;43.93;100438.28;4972734;28;20122;-65
2022/11/04 11:52:51;;;;;;;4.25;0.90;;;;;;;21.21;44.62;100436.78;4972687;28;20086;-64
2022/11/04 11:55:16;;;;;;;2.95;0.45;;;;;;;21.15;44.69;100446.63;4956828;28;20031;-64
2022/11/04 11:57:48;;;;;;;2.42;0.63;;;;;;;21.07;44.53;100440.50;4974169;28;20029;-65
2022/11/04 12:00:16;;;;;;;3.85;1.25;;;;;;;21.03;44.48;100447.41;4973768;28;20042;-64
2022/11/04 12:02:55;;;;;;;4.57;0.80;;;;;;;21.02;44.28;100445.75;4956673;28;20385;-64
2022/11/04 12:05:38;;;;;;;2.05;0.95;;;;;;;20.97;44.97;100449.06;4972528;28;20046;-64
2022/11/04 12:08:30;;;;;;;3.17;1.15;;;;;;;21.00;44.56;100456.81;4972544;28;20446;-64